This is the latest recevied weather packets stored in our database for station/object KC0SIQ-13. If no packets are shown the sender has not sent any weather packets the latest 1 day(s).
| Time | Temp. | Humidity | Pressure | Rain* | Wind** | Luminosity | Snow |
|---|---|---|---|---|---|---|---|
| 1778032419 | 0.56° C | 99% | 1012.5 hPa | 0 mm | - | 0 W/m² | - |
| 1778032116 | 0.56° C | 99% | 1012.6 hPa | 0 mm | - | 1 W/m² | - |
| 1778031509 | 0.56° C | 99% | 1012.3 hPa | 0 mm | - | 3 W/m² | - |
| 1778030903 | 0.56° C | 99% | 1012.5 hPa | 0 mm | - | 3 W/m² | - |
| 1778030600 | 0.56° C | 99% | 1011.9 hPa | 0 mm | - | 4 W/m² | - |
| 1778030297 | 0.56° C | 99% | 1012.1 hPa | 0 mm | - | 4 W/m² | - |
| 1778029994 | 0.56° C | 99% | 1011.9 hPa | 0 mm | - | 6 W/m² | - |
| 1778029691 | 0.56° C | 99% | 1011.9 hPa | 0 mm | - | 6 W/m² | - |
| 1778029389 | 0.56° C | 99% | 1012 hPa | 0 mm | - | 7 W/m² | - |
| 1778028478 | 0.56° C | 99% | 1012.3 hPa | 0 mm | - | 8 W/m² | - |
| 1778028177 | 0.56° C | 99% | 1012.1 hPa | 0 mm | - | 10 W/m² | - |
| 1778027872 | 0.56° C | 99% | 1011.9 hPa | 0 mm | - | 12 W/m² | - |
| 1778027569 | 0.56° C | 99% | 1012 hPa | 0 mm | - | 10 W/m² | - |
| 1778027265 | 0.56° C | 99% | 1012.1 hPa | 0 mm | - | 12 W/m² | - |
| 1778026657 | 0.56° C | 99% | 1012 hPa | 0 mm | - | 17 W/m² | - |
| 1778026355 | 0.56° C | 99% | 1012.1 hPa | 0 mm | - | 17 W/m² | - |
| 1778022723 | 0.56° C | 99% | 1011.9 hPa | 0 mm | - | 22 W/m² | - |
| 1778021205 | 0.56° C | 99% | 1011.8 hPa | 0 mm | - | 29 W/m² | - |
| 1778020601 | 0.56° C | 99% | 1011.8 hPa | 0 mm | - | 23 W/m² | - |
| 1778018478 | 1.11° C | 99% | 1011.8 hPa | 1.78 mm | - | 45 W/m² | - |
| 1778017268 | 0.56° C | 99% | 1011.8 hPa | 1.78 mm | - | 68 W/m² | - |
| 1778016358 | 1.11° C | 99% | 1011.4 hPa | 3.56 mm | - | 124 W/m² | - |
| 1778016056 | 1.11° C | 99% | 1011.6 hPa | 3.05 mm | - | 119 W/m² | - |
| 1778015146 | 0.56° C | 99% | 1011.8 hPa | 1.27 mm | - | 95 W/m² | - |
| 1778012116 | 0.56° C | 99% | 1012.4 hPa | 1.27 mm | - | 63 W/m² | - |
* Rain latest hour (hover to see other rain measurements)
** Current wind speed in m/s (hover to see current wind gust speed)